Terminal Aerodrome Forecast
Issued by NWS

Home | Current Version | Previous Version | Text Only | Print | Product List | Glossary On
Versions: 1 2 3 4 5 6 7 8 9 10 11 12 13 14 15 16 17 18 19 20 21 22 23 24 25 26 27 28 29 30
000
FTAK31 PANC 260540
TAFADL
TAF
PADL 260540Z 2606/2706 13008KT P6SM VCSH SCT025 OVC060
     FM261000 VRB03KT P6SM SCT025 OVC050
     FM262000 13007KT P6SM SCT050 BKN080
     FM270200 19007KT P6SM SCT050 BKN080=

USA.gov is the U.S. government's official web portal to all federal, state and local government web resources and services.